Time;durP1;ratioP1;P1;durP2;ratioP2;P2;SDS_P1;SDS_P2;PMS_P1;PMS_P2;Temp;Humidity;BMP_temperature;BMP_pressure;BME280_temperature;BME280_humidity;BME280_pressure;Samples;Min_cycle;Max_cycle;Signal;HPM_P1;HPM_P2
2023/08/04 00:00:14;;;;;;;26.15;9.68;;;15.00;99.90;;;;;;5013247;28;20026;-69
2023/08/04 00:02:40;;;;;;;21.00;8.45;;;15.00;99.90;;;;;;5011562;28;20420;-69
2023/08/04 00:05:06;;;;;;;25.73;9.13;;;15.00;99.90;;;;;;5012991;28;20068;-69
2023/08/04 00:07:33;;;;;;;24.15;9.32;;;15.00;99.90;;;;;;5013138;28;20025;-69
2023/08/04 00:09:58;;;;;;;24.98;8.80;;;15.00;99.90;;;;;;5012893;28;20022;-69
2023/08/04 00:12:24;;;;;;;21.27;9.05;;;15.00;99.90;;;;;;5015977;28;20368;-69
2023/08/04 00:14:50;;;;;;;22.52;8.88;;;14.90;99.90;;;;;;5016678;28;20029;-69
2023/08/04 00:17:15;;;;;;;22.17;9.60;;;14.90;99.90;;;;;;5016445;28;20029;-69
2023/08/04 00:19:42;;;;;;;19.98;8.95;;;14.80;99.90;;;;;;5016351;28;20030;-69
2023/08/04 00:22:07;;;;;;;17.73;8.75;;;14.80;99.90;;;;;;5016358;28;20503;-69
2023/08/04 00:24:33;;;;;;;24.65;9.77;;;14.80;99.90;;;;;;5016438;28;20025;-69
2023/08/04 00:27:00;;;;;;;31.45;10.18;;;14.80;99.90;;;;;;5015264;28;20579;-68
2023/08/04 00:29:26;;;;;;;26.08;9.55;;;14.70;99.90;;;;;;5016368;28;20056;-68
2023/08/04 00:31:52;;;;;;;25.10;9.63;;;14.70;99.90;;;;;;5014921;28;20022;-69
2023/08/04 00:34:18;;;;;;;22.27;9.65;;;14.70;99.90;;;;;;5016311;28;20037;-69
2023/08/04 00:36:45;;;;;;;19.25;9.85;;;14.70;99.90;;;;;;5016258;28;20034;-69
2023/08/04 00:39:11;;;;;;;20.65;9.68;;;14.70;99.90;;;;;;5016154;28;20030;-68
2023/08/04 00:41:36;;;;;;;24.10;9.90;;;14.70;99.90;;;;;;5015943;28;20029;-69
2023/08/04 00:44:02;;;;;;;25.60;9.50;;;14.80;99.90;;;;;;5016024;28;20072;-69
2023/08/04 00:46:29;;;;;;;23.52;9.25;;;14.70;99.90;;;;;;5015784;28;20026;-69
2023/08/04 00:48:56;;;;;;;24.38;9.43;;;14.80;99.90;;;;;;5015960;28;20447;-68
2023/08/04 00:51:22;;;;;;;27.00;10.20;;;14.80;99.90;;;;;;5015753;28;20101;-69
2023/08/04 00:53:48;;;;;;;19.27;8.82;;;14.80;99.90;;;;;;5015951;28;20026;-69
2023/08/04 00:56:14;;;;;;;20.42;8.75;;;14.90;99.90;;;;;;5014450;28;20033;-69
2023/08/04 00:58:40;;;;;;;19.75;8.55;;;14.90;99.90;;;;;;5015641;28;20041;-69
2023/08/04 01:01:05;;;;;;;20.08;8.35;;;14.90;99.90;;;;;;5015695;28;20344;-69
2023/08/04 01:03:31;;;;;;;18.90;9.00;;;14.90;99.90;;;;;;5015355;28;20534;-69
2023/08/04 01:06:21;;;;;;;18.42;8.38;;;14.90;99.90;;;;;;5015694;28;20030;-69
2023/08/04 01:09:01;;;;;;;20.50;8.05;;;14.90;99.90;;;;;;5014496;28;20022;-69
2023/08/04 01:11:32;;;;;;;22.15;8.65;;;15.00;99.90;;;;;;5015358;28;20029;-69
2023/08/04 01:14:01;;;;;;;25.55;7.95;;;15.00;99.90;;;;;;5014127;28;20022;-69
2023/08/04 01:16:27;;;;;;;21.67;8.32;;;15.00;99.90;;;;;;5014105;28;20403;-69
2023/08/04 01:18:57;;;;;;;16.70;8.07;;;15.10;99.90;;;;;;5015090;28;20030;-69
2023/08/04 01:21:23;;;;;;;22.08;8.45;;;15.10;99.90;;;;;;5015376;28;20038;-69
2023/08/04 01:23:48;;;;;;;16.30;8.52;;;15.10;99.90;;;;;;5015236;28;20049;-69
2023/08/04 01:26:14;;;;;;;23.58;8.40;;;15.10;99.90;;;;;;5015148;28;20392;-69
2023/08/04 01:28:41;;;;;;;21.90;8.25;;;15.10;99.90;;;;;;5015238;28;20113;-69
2023/08/04 01:31:08;;;;;;;24.67;9.35;;;15.10;99.90;;;;;;5015059;28;20022;-69
2023/08/04 01:33:34;;;;;;;24.83;9.23;;;15.10;99.90;;;;;;5014951;28;20411;-69
2023/08/04 01:36:00;;;;;;;25.77;10.10;;;15.10;99.90;;;;;;5014901;28;20030;-69
2023/08/04 01:38:25;;;;;;;18.52;9.70;;;15.10;99.90;;;;;;5015108;28;20034;-69
2023/08/04 01:40:51;;;;;;;28.38;11.30;;;15.10;99.90;;;;;;5014995;28;20498;-69
2023/08/04 01:43:20;;;;;;;20.40;11.13;;;15.10;99.90;;;;;;5014727;28;20021;-69
2023/08/04 01:45:45;;;;;;;26.52;11.38;;;15.10;99.90;;;;;;5014592;28;20502;-69
2023/08/04 01:48:11;;;;;;;23.85;11.82;;;15.10;99.90;;;;;;5014770;28;20024;-68
2023/08/04 01:50:36;;;;;;;27.35;12.07;;;15.20;99.90;;;;;;5014717;28;20392;-69
2023/08/04 01:53:02;;;;;;;26.83;11.75;;;15.10;99.90;;;;;;5014542;28;20034;-69
2023/08/04 01:55:28;;;;;;;22.40;11.38;;;15.10;99.90;;;;;;5014562;28;20033;-69
2023/08/04 01:57:53;;;;;;;24.77;12.20;;;15.10;99.90;;;;;;5014728;28;20045;-69
2023/08/04 02:00:19;;;;;;;24.98;12.15;;;15.20;99.90;;;;;;5014521;28;20026;-69
2023/08/04 02:02:44;;;;;;;29.05;11.05;;;15.10;99.90;;;;;;5014442;28;20041;-69
2023/08/04 02:05:11;;;;;;;25.88;12.18;;;15.20;99.90;;;;;;5014435;28;20030;-69
2023/08/04 02:07:36;;;;;;;22.75;11.75;;;15.10;99.90;;;;;;5014434;28;20033;-69
2023/08/04 02:10:03;;;;;;;27.58;12.00;;;15.10;99.90;;;;;;5014530;28;20476;-69
2023/08/04 02:12:28;;;;;;;23.70;10.77;;;15.10;99.90;;;;;;5029722;28;20022;-69
2023/08/04 02:14:54;;;;;;;22.77;11.52;;;15.20;99.90;;;;;;5029460;28;20502;-69
2023/08/04 02:17:19;;;;;;;22.45;11.48;;;15.10;99.90;;;;;;5014439;28;20033;-69
2023/08/04 02:19:45;;;;;;;24.83;11.38;;;15.20;99.90;;;;;;5014153;28;20037;-70
2023/08/04 02:22:11;;;;;;;26.63;11.40;;;15.10;99.90;;;;;;5014178;28;20048;-70
2023/08/04 02:24:36;;;;;;;26.42;10.88;;;15.10;99.90;;;;;;5013831;28;20468;-70
2023/08/04 02:27:02;;;;;;;23.38;10.88;;;15.10;99.90;;;;;;5014024;28;20025;-70
2023/08/04 02:29:27;;;;;;;24.13;11.45;;;15.10;99.90;;;;;;5013858;28;20032;-69
2023/08/04 02:31:53;;;;;;;27.55;11.50;;;15.10;99.90;;;;;;5013969;28;20032;-70
2023/08/04 02:34:19;;;;;;;30.40;13.18;;;15.10;99.90;;;;;;5013508;28;20034;-69
2023/08/04 02:36:45;;;;;;;22.70;10.98;;;15.10;99.90;;;;;;5013845;28;20037;-69
2023/08/04 02:39:10;;;;;;;25.05;10.90;;;15.10;99.90;;;;;;5029271;28;20030;-69
2023/08/04 02:41:36;;;;;;;22.70;11.82;;;15.10;99.90;;;;;;5013959;28;20026;-69
2023/08/04 02:44:03;;;;;;;22.70;10.82;;;15.10;99.90;;;;;;5013646;28;20033;-69
2023/08/04 02:46:29;;;;;;;23.05;11.68;;;15.10;99.90;;;;;;5013731;28;20030;-69
2023/08/04 02:48:55;;;;;;;27.25;12.27;;;15.10;99.90;;;;;;5013548;28;20026;-69
2023/08/04 02:51:21;;;;;;;25.48;11.73;;;15.10;99.90;;;;;;5028836;28;20442;-69
2023/08/04 02:53:47;;;;;;;24.63;11.38;;;15.10;99.90;;;;;;5013873;28;20026;-69
2023/08/04 02:56:15;;;;;;;24.02;11.00;;;15.10;99.90;;;;;;5013761;28;20083;-69
2023/08/04 02:58:42;;;;;;;27.00;11.30;;;15.10;99.90;;;;;;5028836;28;20026;-69
2023/08/04 03:01:08;;;;;;;23.15;12.02;;;15.10;99.90;;;;;;5029053;28;20483;-69
2023/08/04 03:03:34;;;;;;;18.30;10.57;;;15.10;99.90;;;;;;5028472;28;20049;-69
2023/08/04 03:06:01;;;;;;;22.38;11.02;;;15.00;99.90;;;;;;5012523;28;20030;-69
2023/08/04 03:08:27;;;;;;;21.77;11.68;;;15.00;99.90;;;;;;5013676;28;20520;-69
2023/08/04 03:10:53;;;;;;;32.35;13.35;;;15.00;99.90;;;;;;5028663;28;20061;-69
2023/08/04 03:13:18;;;;;;;23.48;12.68;;;15.00;99.90;;;;;;5028946;28;20060;-70
2023/08/04 03:15:44;;;;;;;31.70;12.27;;;15.10;99.90;;;;;;5013629;28;20022;-69
2023/08/04 03:18:09;;;;;;;28.38;12.85;;;15.00;99.90;;;;;;5013616;28;20484;-69
2023/08/04 03:20:38;;;;;;;24.73;12.48;;;15.10;99.90;;;;;;5028809;28;20026;-69
2023/08/04 03:23:04;;;;;;;29.77;12.85;;;15.10;99.90;;;;;;5013232;28;20025;-69
2023/08/04 03:25:30;;;;;;;27.52;12.63;;;15.10;99.90;;;;;;5013295;28;20228;-69
2023/08/04 03:27:55;;;;;;;28.23;13.07;;;15.10;99.90;;;;;;5028339;28;20018;-69
2023/08/04 03:30:21;;;;;;;26.23;12.38;;;15.10;99.90;;;;;;5013343;28;20026;-69
2023/08/04 03:32:46;;;;;;;25.98;12.65;;;15.10;99.90;;;;;;5013282;28;20026;-70
2023/08/04 03:35:12;;;;;;;28.30;12.15;;;15.10;99.90;;;;;;5013286;28;20427;-69
2023/08/04 03:37:39;;;;;;;25.98;11.75;;;15.10;99.90;;;;;;5013320;28;20034;-69
2023/08/04 03:40:06;;;;;;;30.20;12.35;;;15.10;99.90;;;;;;5013124;28;20025;-69
2023/08/04 03:42:31;;;;;;;23.05;11.73;;;15.00;99.90;;;;;;5013407;28;20084;-69
2023/08/04 03:44:57;;;;;;;25.83;12.93;;;15.00;99.90;;;;;;5013048;28;20411;-69
2023/08/04 03:47:22;;;;;;;21.48;11.68;;;15.00;99.90;;;;;;5016364;28;20029;-69
2023/08/04 03:49:48;;;;;;;22.35;10.23;;;15.10;99.90;;;;;;5016913;28;20050;-69
2023/08/04 03:52:13;;;;;;;20.23;10.68;;;15.00;99.90;;;;;;5017046;28;20018;-69
2023/08/04 03:54:39;;;;;;;22.40;11.23;;;15.00;99.90;;;;;;5016934;28;20128;-70
2023/08/04 03:57:05;;;;;;;29.95;12.38;;;15.00;99.90;;;;;;5016972;28;20108;-69
2023/08/04 03:59:31;;;;;;;23.65;11.85;;;15.00;99.90;;;;;;5016646;28;20022;-69
2023/08/04 04:01:56;;;;;;;26.65;12.15;;;15.00;99.90;;;;;;5031990;28;20029;-69
2023/08/04 04:04:22;;;;;;;33.22;12.68;;;15.10;99.90;;;;;;5016417;28;20397;-69
2023/08/04 04:06:47;;;;;;;27.08;12.20;;;15.00;99.90;;;;;;5016581;28;20030;-69
2023/08/04 04:09:14;;;;;;;24.75;11.75;;;15.00;99.90;;;;;;5016561;28;20484;-69
2023/08/04 04:11:41;;;;;;;27.05;12.77;;;15.00;99.90;;;;;;5016641;28;20392;-69
2023/08/04 04:14:10;;;;;;;31.50;12.05;;;15.00;99.90;;;;;;5016515;28;20391;-69
2023/08/04 04:16:36;;;;;;;24.88;12.30;;;15.00;99.90;;;;;;5016655;28;20463;-69
2023/08/04 04:19:01;;;;;;;27.75;13.32;;;15.00;99.90;;;;;;5016329;28;20036;-69
2023/08/04 04:21:27;;;;;;;28.38;12.75;;;15.00;99.90;;;;;;5016311;28;20033;-69
2023/08/04 04:23:52;;;;;;;29.92;13.00;;;15.10;99.90;;;;;;5031301;28;20040;-69
2023/08/04 04:26:18;;;;;;;29.10;12.85;;;15.10;99.90;;;;;;5016475;28;20030;-69
2023/08/04 04:28:43;;;;;;;25.58;11.43;;;15.10;99.90;;;;;;5016264;28;20022;-69
2023/08/04 04:31:09;;;;;;;22.98;11.30;;;15.10;99.90;;;;;;5016203;28;20022;-69
2023/08/04 04:33:34;;;;;;;30.88;10.90;;;15.10;99.90;;;;;;5016039;28;20108;-69
2023/08/04 04:36:00;;;;;;;33.65;12.25;;;15.10;99.90;;;;;;5016012;28;20076;-69
2023/08/04 04:38:28;;;;;;;26.13;11.77;;;15.10;99.90;;;;;;5015939;28;20034;-69
2023/08/04 04:40:58;;;;;;;27.38;11.93;;;15.10;99.90;;;;;;5015940;28;20034;-69
2023/08/04 04:43:24;;;;;;;28.45;11.75;;;15.10;99.90;;;;;;5015765;28;20042;-70
2023/08/04 04:45:51;;;;;;;26.95;11.27;;;15.20;99.90;;;;;;5015970;28;20030;-69
2023/08/04 04:48:18;;;;;;;25.35;11.80;;;15.20;99.90;;;;;;5015750;28;20112;-69
2023/08/04 04:50:44;;;;;;;23.73;10.75;;;15.20;99.90;;;;;;5030929;28;20525;-69
2023/08/04 04:53:10;;;;;;;27.98;11.48;;;15.20;99.90;;;;;;5015820;28;20030;-69
2023/08/04 04:55:35;;;;;;;24.88;11.43;;;15.20;99.90;;;;;;5015794;28;20056;-69
2023/08/04 04:58:01;;;;;;;26.48;10.80;;;15.20;99.90;;;;;;5015297;28;20475;-69
2023/08/04 05:00:27;;;;;;;27.15;10.63;;;15.20;99.90;;;;;;5030868;28;20018;-69
2023/08/04 05:02:52;;;;;;;20.83;10.43;;;15.20;99.90;;;;;;5015335;28;20377;-69
2023/08/04 05:05:18;;;;;;;24.70;9.63;;;15.30;99.90;;;;;;5015474;28;20038;-69
2023/08/04 05:07:43;;;;;;;18.90;10.05;;;15.30;99.90;;;;;;5015480;28;20022;-69
2023/08/04 05:10:09;;;;;;;25.45;11.27;;;15.30;99.90;;;;;;5015662;28;20369;-69
2023/08/04 05:12:35;;;;;;;27.38;11.40;;;15.20;99.90;;;;;;5015532;28;20088;-69
2023/08/04 05:15:01;;;;;;;23.45;10.48;;;15.20;99.90;;;;;;5015420;28;20026;-70
2023/08/04 05:17:26;;;;;;;24.02;12.02;;;15.30;99.90;;;;;;5015208;28;20026;-69
2023/08/04 05:19:52;;;;;;;20.25;11.00;;;15.30;99.90;;;;;;5015517;28;20460;-69
2023/08/04 05:22:17;;;;;;;23.90;11.23;;;15.40;99.90;;;;;;5015153;28;20390;-69
2023/08/04 05:24:44;;;;;;;27.00;10.93;;;15.40;99.90;;;;;;5015304;28;20041;-72
2023/08/04 05:27:10;;;;;;;27.48;11.32;;;15.30;99.90;;;;;;5015300;28;20038;-70
2023/08/04 05:29:35;;;;;;;21.83;10.60;;;15.40;99.90;;;;;;5015009;28;20101;-70
2023/08/04 05:32:01;;;;;;;24.02;10.73;;;15.40;99.90;;;;;;5014946;28;20468;-69
2023/08/04 05:34:26;;;;;;;25.45;9.77;;;15.40;99.90;;;;;;5014861;28;20399;-70
2023/08/04 05:36:52;;;;;;;24.02;10.18;;;15.50;99.90;;;;;;5014912;28;20026;-69
2023/08/04 05:39:17;;;;;;;21.63;10.13;;;15.50;99.90;;;;;;5015050;28;20476;-70
2023/08/04 05:41:45;;;;;;;24.20;10.25;;;15.50;99.90;;;;;;5014884;28;20038;-70
2023/08/04 05:44:11;;;;;;;29.08;10.43;;;15.50;99.90;;;;;;5014915;28;20026;-70
2023/08/04 05:46:37;;;;;;;24.88;9.95;;;15.60;99.90;;;;;;5014637;28;20475;-70
2023/08/04 05:49:02;;;;;;;21.90;8.93;;;15.70;99.90;;;;;;5014815;28;20036;-70
2023/08/04 05:51:28;;;;;;;19.77;9.13;;;15.70;99.90;;;;;;5014621;28;20032;-70
2023/08/04 05:53:53;;;;;;;22.92;9.18;;;15.70;99.90;;;;;;5014542;28;20022;-70
2023/08/04 05:56:19;;;;;;;24.00;9.50;;;15.80;99.90;;;;;;5014601;28;20026;-70
2023/08/04 05:58:44;;;;;;;20.63;9.30;;;15.90;99.90;;;;;;5013638;28;20030;-70
2023/08/04 06:01:10;;;;;;;19.80;8.07;;;16.00;99.90;;;;;;5013458;28;20033;-71
2023/08/04 06:03:39;;;;;;;19.77;8.82;;;16.10;99.90;;;;;;5003984;28;20116;-70
2023/08/04 06:06:04;;;;;;;18.35;7.95;;;16.20;99.90;;;;;;5003815;28;20030;-70
2023/08/04 06:08:30;;;;;;;17.17;8.52;;;16.10;99.90;;;;;;5010529;28;20443;-70
2023/08/04 06:10:55;;;;;;;13.55;8.07;;;16.30;99.90;;;;;;5008537;28;20498;-69
2023/08/04 06:13:21;;;;;;;19.27;8.05;;;16.30;99.90;;;;;;5005822;28;20436;-70
2023/08/04 06:15:48;;;;;;;19.00;8.35;;;16.40;99.90;;;;;;5012452;28;20030;-70
2023/08/04 06:18:14;;;;;;;18.17;7.47;;;16.50;99.90;;;;;;5008906;28;20029;-70
2023/08/04 06:20:39;;;;;;;19.58;7.20;;;16.60;99.90;;;;;;5012302;28;20057;-70
2023/08/04 06:23:05;;;;;;;20.13;7.97;;;16.70;99.90;;;;;;5013642;28;20048;-70
2023/08/04 06:25:31;;;;;;;22.63;7.03;;;16.90;99.90;;;;;;5012949;28;20471;-70
2023/08/04 06:27:56;;;;;;;16.05;7.45;;;16.90;99.90;;;;;;4996239;28;20031;-70
2023/08/04 06:30:22;;;;;;;16.90;6.40;;;16.90;99.90;;;;;;4997198;28;20030;-69
2023/08/04 06:32:49;;;;;;;17.23;6.57;;;17.20;99.90;;;;;;5006016;28;20421;-69
2023/08/04 06:35:15;;;;;;;13.27;6.15;;;17.80;99.90;;;;;;5004263;28;20383;-70
2023/08/04 06:37:40;;;;;;;18.05;6.47;;;17.70;99.90;;;;;;5013127;28;20104;-70
2023/08/04 06:40:07;;;;;;;11.38;6.55;;;;;;;;;;5013483;28;20041;-70
2023/08/04 06:42:32;;;;;;;15.02;5.50;;;18.00;99.90;;;;;;5010680;28;20022;-70
2023/08/04 06:44:58;;;;;;;9.70;5.78;;;18.50;99.90;;;;;;5012545;28;20084;-70
2023/08/04 06:47:23;;;;;;;19.52;6.07;;;18.10;90.40;;;;;;5011231;28;21356;-70
2023/08/04 06:49:49;;;;;;;17.38;6.50;;;17.80;99.90;;;;;;5013315;28;20392;-70
2023/08/04 06:52:15;;;;;;;16.60;6.85;;;18.10;99.90;;;;;;5010665;28;20109;-70
2023/08/04 06:54:40;;;;;;;10.15;4.80;;;18.90;97.10;;;;;;5011648;28;20462;-70
2023/08/04 06:57:07;;;;;;;14.23;4.93;;;;;;;;;;5013141;28;20037;-70
2023/08/04 06:59:33;;;;;;;13.25;4.78;;;;;;;;;;5007539;28;20038;-70
2023/08/04 07:01:59;;;;;;;9.32;4.47;;;;;;;;;;5011402;28;20555;-70
2023/08/04 07:04:25;;;;;;;10.38;3.83;;;;;;;;;;5010864;28;20065;-70
2023/08/04 07:06:51;;;;;;;10.88;4.22;;;;;;;;;;5012071;28;20026;-71
2023/08/04 07:09:17;;;;;;;11.32;4.38;;;;;;;;;;5007587;28;20041;-70
2023/08/04 07:11:43;;;;;;;13.50;4.15;;;;;;;;;;4993897;28;20026;-69
2023/08/04 07:14:09;;;;;;;8.40;3.95;;;;;;;;;;5008757;28;20030;-70
2023/08/04 07:16:35;;;;;;;5.57;3.30;;;;;;;;;;5000646;28;20030;-70
2023/08/04 07:19:01;;;;;;;7.95;3.30;;;;;;;;;;5009041;28;20443;-70
2023/08/04 07:21:27;;;;;;;10.38;3.40;;;;;;;;;;5002881;28;20484;-70
2023/08/04 07:23:53;;;;;;;5.05;3.00;;;;;;;;;;5002902;28;20022;-69
2023/08/04 07:26:19;;;;;;;11.30;3.42;;;;;;;;;;5006021;28;20121;-71
2023/08/04 07:28:45;;;;;;;9.52;3.33;;;;;;;;;;5002278;28;20080;-71
2023/08/04 07:31:11;;;;;;;10.45;3.75;;;;;;;;;;5014149;28;20041;-70
2023/08/04 07:33:37;;;;;;;9.35;3.10;;;;;;;;;;5017531;28;20105;-70
2023/08/04 07:36:04;;;;;;;6.38;3.10;;;19.40;1.00;;;;;;5013185;28;20121;-68
2023/08/04 07:38:30;;;;;;;9.30;3.10;;;19.40;10.20;;;;;;5004206;28;20034;-69
2023/08/04 07:40:57;;;;;;;8.82;2.70;;;21.20;1.00;;;;;;5014557;28;20113;-69
2023/08/04 07:43:24;;;;;;;8.10;2.20;;;22.50;99.90;;;;;;5017121;28;20491;-69
2023/08/04 07:45:49;;;;;;;5.90;2.65;;;22.40;99.90;;;;;;5011502;28;20022;-70
2023/08/04 07:48:15;;;;;;;5.85;2.42;;;21.20;1.00;;;;;;5017228;28;20033;-69
2023/08/04 07:50:48;;;;;;;8.40;2.70;;;20.80;1.00;;;;;;5010363;28;20029;-69
2023/08/04 07:53:13;;;;;;;6.03;2.63;;;20.50;1.00;;;;;;5004553;28;20030;-69
2023/08/04 07:55:39;;;;;;;8.82;2.80;;;21.00;1.00;;;;;;5011187;28;20044;-69
2023/08/04 07:58:07;;;;;;;9.88;2.65;;;20.60;1.00;;;;;;5015896;28;20026;-69
2023/08/04 08:00:32;;;;;;;6.65;2.58;;;20.10;1.00;;;;;;5014239;28;21318;-69
2023/08/04 08:02:58;;;;;;;10.70;3.40;;;;;;;;;;5016468;28;20034;-69
2023/08/04 08:05:24;;;;;;;4.95;2.88;;;;;;;;;;5016117;28;20037;-69
2023/08/04 08:07:51;;;;;;;7.15;3.00;;;;;;;;;;5007523;28;20037;-69
2023/08/04 08:10:18;;;;;;;7.18;3.03;;;;;;;;;;5014225;28;20040;-69
2023/08/04 08:12:44;;;;;;;9.57;3.40;;;;;;;;;;5015982;28;20034;-69
2023/08/04 08:15:10;;;;;;;9.18;3.30;;;;;;;;;;5004732;28;20105;-69
2023/08/04 08:17:37;;;;;;;9.30;3.30;;;;;;;;;;5005370;28;20034;-69
2023/08/04 08:20:04;;;;;;;9.57;3.67;;;19.40;27.90;;;;;;4997004;28;20035;-69
2023/08/04 08:22:30;;;;;;;7.28;3.92;;;19.30;18.20;;;;;;4999035;28;20034;-69
2023/08/04 08:24:56;;;;;;;12.00;3.90;;;19.10;45.50;;;;;;5005240;28;20033;-69
2023/08/04 08:27:22;;;;;;;9.75;3.67;;;18.90;43.90;;;;;;5000332;28;20492;-69
2023/08/04 08:29:52;;;;;;;9.70;3.90;;;18.80;42.70;;;;;;5008240;28;20037;-69
2023/08/04 08:32:17;;;;;;;14.00;3.55;;;19.40;25.90;;;;;;5002222;28;20018;-69
2023/08/04 08:34:44;;;;;;;7.72;3.03;;;20.80;1.00;;;;;;5015250;28;20068;-69
2023/08/04 08:37:09;;;;;;;9.57;3.00;;;22.40;1.00;;;;;;5011595;28;20105;-69
2023/08/04 08:39:35;;;;;;;6.40;3.03;;;23.30;99.90;;;;;;5000655;28;20160;-69
2023/08/04 08:42:00;;;;;;;6.78;2.90;;;23.80;99.90;;;;;;5015154;28;20380;-69
2023/08/04 08:44:26;;;;;;;5.13;2.78;;;23.10;99.90;;;;;;5011395;28;20415;-69
2023/08/04 08:46:52;;;;;;;4.00;2.33;;;22.00;99.90;;;;;;5014976;28;20026;-69
2023/08/04 08:49:23;;;;;;;7.93;2.22;;;21.10;1.00;;;;;;5014662;28;20383;-69
2023/08/04 08:51:51;;;;;;;6.55;2.70;;;21.40;1.00;;;;;;4997868;28;20036;-68
2023/08/04 08:54:18;;;;;;;8.23;2.75;;;21.40;1.00;;;;;;5014597;28;20399;-69
2023/08/04 08:56:43;;;;;;;5.90;3.05;;;20.70;1.00;;;;;;5013009;28;20037;-69
2023/08/04 08:59:09;;;;;;;5.25;2.63;;;20.80;1.00;;;;;;5014064;28;20034;-69
2023/08/04 09:01:35;;;;;;;5.93;3.17;;;20.70;1.00;;;;;;5012620;28;20425;-69
2023/08/04 09:04:00;;;;;;;10.13;3.45;;;20.50;1.00;;;;;;5014282;28;20116;-69
2023/08/04 09:06:26;;;;;;;5.70;2.75;;;20.40;1.00;;;;;;5014010;28;20113;-68
2023/08/04 09:08:53;;;;;;;7.93;3.30;;;20.40;1.00;;;;;;5004767;28;20026;-69
2023/08/04 09:11:19;;;;;;;7.57;3.10;;;20.60;1.00;;;;;;5014398;28;20084;-68
2023/08/04 09:13:45;;;;;;;8.63;2.70;;;20.90;1.00;;;;;;5006345;28;20034;-69
2023/08/04 09:16:12;;;;;;;7.32;3.30;;;21.90;99.90;;;;;;5014461;28;20026;-69
2023/08/04 09:18:39;;;;;;;6.88;2.78;;;21.70;99.90;;;;;;5014703;28;20079;-69
2023/08/04 09:23:48;;;;;;;5.13;2.65;;;22.40;99.90;;;;;;5114040;27;20453;-69
2023/08/04 09:26:14;;;;;;;5.50;2.35;;;22.50;99.90;;;;;;5098098;28;20133;-70
2023/08/04 09:28:40;;;;;;;7.40;2.45;;;22.80;1.00;;;;;;5094891;28;20500;-70
2023/08/04 09:31:07;;;;;;;8.93;2.10;;;;;;;;;;5093127;28;20109;-70
2023/08/04 09:33:34;;;;;;;7.07;2.63;;;;;;;;;;5091950;28;20055;-69
2023/08/04 09:36:04;;;;;;;6.28;2.53;;;;;;;;;;5090150;28;20052;-69
2023/08/04 09:38:30;;;;;;;4.55;2.50;;;;;;;;;;5089984;28;20480;-69
2023/08/04 09:41:00;;;;;;;10.05;3.00;;;;;;;;;;5088898;28;20056;-69
2023/08/04 09:43:26;;;;;;;3.65;2.40;;;;;;;;;;5088932;28;20709;-69
2023/08/04 09:46:01;;;;;;;5.20;2.42;;;;;;;;;;5092648;28;20059;-69
2023/08/04 09:48:28;;;;;;;5.60;2.72;;;;;;;;;;5090048;28;20024;-69
2023/08/04 09:51:10;;;;;;;5.85;1.90;;;;;;;;;;5090201;28;20024;-69
2023/08/04 09:53:54;;;;;;;6.38;2.20;;;;;;;;;;5090297;28;20048;-69
2023/08/04 09:56:21;;;;;;;3.33;1.73;;;;;;;;;;5089263;28;20111;-69
2023/08/04 09:58:48;;;;;;;3.95;1.70;;;;;;;;;;5089862;28;20054;-69
2023/08/04 10:01:14;;;;;;;6.72;1.90;;;;;;;;;;5088328;28;20503;-70
2023/08/04 10:03:41;;;;;;;3.58;1.75;;;;;;;;;;5089868;28;20028;-69
2023/08/04 10:06:07;;;;;;;4.35;1.63;;;;;;;;;;5088524;28;20034;-69
2023/08/04 10:08:36;;;;;;;4.28;1.70;;;;;;;;;;5089729;28;20028;-69
2023/08/04 10:11:03;;;;;;;3.78;1.85;;;;;;;;;;5089066;28;20043;-69
2023/08/04 10:13:35;;;;;;;2.58;1.88;;;;;;;;;;5088335;28;20031;-70
2023/08/04 10:16:03;;;;;;;2.22;1.40;;;;;;;;;;5091723;28;20035;-69
2023/08/04 10:18:49;;;;;;;4.40;1.65;;;;;;;;;;5093932;28;20045;-69
2023/08/04 10:21:16;;;;;;;3.42;1.38;;;;;;;;;;5086828;28;20036;-69
2023/08/04 10:23:42;;;;;;;3.05;1.17;;;;;;;;;;5088199;28;20528;-69
2023/08/04 10:26:11;;;;;;;4.22;1.60;;;;;;;;;;5081811;28;20029;-70
2023/08/04 10:28:56;;;;;;;3.17;1.27;;;;;;;;;;5096182;28;20520;-70
2023/08/04 10:31:39;;;;;;;3.17;1.10;;;;;;;;;;5087208;28;20024;-69
2023/08/04 10:34:25;;;;;;;2.67;1.48;;;;;;;;;;5079021;28;20072;-69
2023/08/04 10:36:53;;;;;;;5.78;1.23;;;;;;;;;;5092985;28;20031;-69
2023/08/04 10:39:28;;;;;;;2.67;1.20;;;;;;;;;;5076788;28;20031;-68
2023/08/04 10:41:54;;;;;;;4.13;1.27;;;;;;;;;;5085192;28;20028;-68
2023/08/04 10:44:20;;;;;;;4.65;1.25;;;;;;;;;;5072234;28;20020;-68
2023/08/04 10:46:49;;;;;;;1.67;0.95;;;;;;;;;;5081301;28;20029;-69
2023/08/04 10:49:15;;;;;;;5.68;1.27;;;;;;;;;;5082308;28;20525;-68
2023/08/04 10:51:41;;;;;;;5.43;1.30;;;;;;;;;;5079984;28;20501;-68
2023/08/04 10:54:07;;;;;;;3.58;1.60;;;;;;;;;;5081161;28;20035;-69
2023/08/04 10:56:37;;;;;;;5.95;1.60;;;;;;;;;;5079001;28;20032;-69
2023/08/04 10:59:07;;;;;;;4.50;1.60;;;;;;;;;;5074770;28;20053;-69
2023/08/04 11:01:33;;;;;;;4.43;1.30;;;;;;;;;;5075961;28;20497;-68
2023/08/04 11:03:59;;;;;;;2.70;1.40;;;;;;;;;;5092059;28;20039;-68
2023/08/04 11:06:25;;;;;;;2.88;1.50;;;;;;;;;;5077973;28;20024;-68
2023/08/04 11:08:52;;;;;;;4.03;1.35;;;;;;;;;;5075047;28;20035;-68
2023/08/04 11:11:18;;;;;;;2.72;1.27;;;;;;;;;;5073966;28;20086;-68
2023/08/04 11:13:44;;;;;;;2.33;1.40;;;;;;;;;;5069445;28;20035;-68
2023/08/04 11:16:10;;;;;;;2.53;1.20;;;;;;;;;;5082170;28;20028;-68
2023/08/04 11:18:37;;;;;;;4.35;1.63;;;;;;;;;;5093967;28;20020;-68
2023/08/04 11:21:03;;;;;;;2.67;1.52;;;;;;;;;;5084095;28;20054;-68
2023/08/04 11:23:30;;;;;;;5.25;1.98;;;;;;;;;;5093493;28;20461;-68
2023/08/04 11:25:56;;;;;;;2.35;1.60;;;;;;;;;;5081003;28;20020;-68
2023/08/04 11:28:22;;;;;;;2.55;1.50;;;;;;;;;;5082727;28;20052;-68
2023/08/04 11:30:48;;;;;;;5.13;1.70;;;;;;;;;;5083352;28;20512;-67
2023/08/04 11:33:16;;;;;;;4.18;1.73;;;;;;;;;;5072852;28;20059;-68
2023/08/04 11:35:44;;;;;;;3.00;2.28;;;;;;;;;;5077111;28;20389;-68
2023/08/04 11:38:10;;;;;;;7.03;2.30;;;;;;;;;;5093305;28;20036;-68
2023/08/04 11:40:37;;;;;;;5.68;2.05;;;;;;;;;;5089168;28;20028;-68
2023/08/04 11:43:03;;;;;;;5.25;2.25;;;;;;;;;;5078614;28;20032;-68
2023/08/04 11:45:30;;;;;;;3.53;2.00;;;;;;;;;;5082612;28;20039;-68
2023/08/04 11:47:57;;;;;;;3.45;2.10;;;;;;;;;;5077818;28;20033;-68
2023/08/04 11:50:24;;;;;;;3.55;1.85;;;;;;;;;;5077842;28;20029;-68
2023/08/04 11:52:50;;;;;;;3.97;1.60;;;;;;;;;;5090394;28;20396;-68
2023/08/04 11:55:16;;;;;;;2.88;1.65;;;;;;;;;;5086415;28;20409;-69
2023/08/04 11:57:57;;;;;;;6.50;1.85;;;;;;;;;;5083368;28;20044;-68
2023/08/04 12:00:38;;;;;;;4.80;2.00;;;;;;;;;;5076971;28;20036;-68
2023/08/04 12:03:05;;;;;;;3.38;1.73;;;;;;;;;;5088870;28;20040;-68
2023/08/04 12:05:32;;;;;;;5.05;1.80;;;;;;;;;;5079801;28;20385;-68
2023/08/04 12:07:59;;;;;;;4.78;1.65;;;;;;;;;;5083650;28;20082;-68
2023/08/04 12:10:25;;;;;;;2.22;1.42;;;;;;;;;;5085369;28;20027;-69
2023/08/04 12:12:51;;;;;;;2.55;1.20;;;;;;;;;;5090429;28;20032;-68
2023/08/04 12:15:17;;;;;;;1.85;1.10;;;;;;;;;;5072182;28;20035;-68
2023/08/04 12:17:43;;;;;;;6.50;1.40;;;;;;;;;;5076460;28;20554;-69
2023/08/04 12:20:10;;;;;;;1.83;0.88;;;;;;;;;;5088926;28;20086;-68
2023/08/04 12:22:37;;;;;;;1.98;1.05;;;;;;;;;;5076332;28;20052;-68
2023/08/04 12:25:04;;;;;;;1.83;1.10;;;;;;;;;;5079628;28;20508;-68
2023/08/04 12:27:30;;;;;;;0.98;0.88;;;;;;;;;;5084548;28;20052;-69
2023/08/04 12:29:56;;;;;;;2.00;1.30;;;;;;;;;;5071837;28;20021;-68
2023/08/04 12:32:22;;;;;;;4.32;1.58;;;;;;;;;;5075302;28;20028;-68
2023/08/04 12:34:48;;;;;;;1.98;1.40;;;;;;;;;;5071625;28;20107;-69
2023/08/04 12:37:14;;;;;;;2.88;1.30;;;;;;;;;;5086034;28;20133;-68
2023/08/04 12:39:41;;;;;;;3.38;1.70;;;;;;;;;;5087410;28;20025;-68
2023/08/04 12:42:07;;;;;;;2.95;1.48;;;;;;;;;;5082682;28;20405;-68
2023/08/04 12:44:33;;;;;;;3.22;1.30;;;;;;;;;;5075164;28;20555;-68
2023/08/04 12:46:59;;;;;;;2.35;1.45;;;;;;;;;;5086097;28;20044;-68
2023/08/04 12:49:25;;;;;;;4.75;2.30;;;;;;;;;;5085168;28;20027;-69
2023/08/04 12:51:51;;;;;;;2.95;1.55;;;;;;;;;;5076983;28;20052;-68
2023/08/04 12:54:17;;;;;;;2.53;1.60;;;;;;;;;;5052881;28;20029;-68
2023/08/04 12:56:43;;;;;;;2.28;1.15;;;;;;;;;;5052844;28;20116;-68
2023/08/04 12:59:10;;;;;;;2.53;1.27;;;;;;;;;;5068577;28;20501;-67
2023/08/04 13:01:37;;;;;;;2.35;1.02;;;;;;;;;;5068430;28;20025;-69
2023/08/04 13:04:03;;;;;;;1.33;0.85;;;;;;;;;;5053070;28;20474;-69
2023/08/04 13:06:28;;;;;;;1.15;0.80;;;;;;;;;;5053000;28;20029;-68
2023/08/04 13:08:54;;;;;;;2.42;1.10;;;;;;;;;;5053340;28;20033;-69
2023/08/04 13:11:20;;;;;;;2.65;1.20;;;;;;;;;;5052844;28;20060;-69
2023/08/04 13:13:46;;;;;;;1.50;0.95;;;;;;;;;;5053147;28;20234;-70